Koniz, Switzerland
Current Conditions -  °F | °C
As of 9:50 AM on Saturday 22 Nov 2014 (Local Time) from LSZB Reporting Station
Moderate Fog Moderate Fog  
Wind Chill: 36°   Ceiling: 100
Heat Index: 36°   Visibility: 0.15mi
Dew Point: 36°   Wind: 1mph
Humidity: 100%   Direction: NA
Pressure: 30.18"   Gusts: NA
Location:  46.93°N, 7.42°E
Report Text: LSZB 220850Z VRB01KT 0250 R14/0350N FG VV001 02/02 Q1022 NOSIG
Loading
Personal Weather Stations






























Interactive Weather Map New forecast layout! Learn more

10-Day Weather Forecast

Advertisements
Track Severe Weather on mobile